Impacts METAR Board
IDs:

KTPL - Temple/Miller Rgnl, TX, US

Updated at: 0800 UTC 26 May 2019
Potential Impact None Slight Moderate High
Time 25/20Z 25/21Z 25/22Z 25/23Z 26/00Z 26/01Z 26/02Z 26/03Z 26/04Z 26/05Z 26/06Z 26/07Z 26/08Z
Temp88 89 88 88 86 84 81 80 78 76 75 73 73
Dewpt73 72 72 70 69 68 70 70 69 69 70 71 72
Altim30.02 29.99 29.98 29.97 29.96 29.96 29.97 29.98 30.01 30.01 30.03 30.02 30.02
VIS10 10 10 10 10 10 10 10 10 10 10 10 10
CIG-- -- -- 55 -- -- -- -- -- -- -- -- --
CoverSCTFEWSCTBKNFEWCLRCLRCLRCLRCLRCLRCLRSCT
FltCatVFRVFRVFRVFRVFRVFRVFRVFRVFRVFRVFRVFRVFR
WX--------------------------
WDir150130140140130140150150150160160160150
WSpd17 12 16 17 19 13 14 16 12 12 9 13 13
WGst-- 21 19 24 -- -- -- 20 -- -- -- -- --
Raw hourly METARs
KTPL 251951Z AUTO 15017KT 10SM FEW037 SCT060 31/23 A3002 RMK AO2 SLP166 T03110228
KTPL 252051Z AUTO 13012G21KT 10SM FEW043 32/22 A2999 RMK AO2 SLP158 T03170222 57020
KTPL 252151Z AUTO 14016G19KT 10SM SCT045 31/22 A2998 RMK AO2 SLP152 T03110222
KTPL 252251Z AUTO 14017G24KT 10SM SCT047 BKN055 31/21 A2997 RMK AO2 SLP149 T03110211
KTPL 252351Z AUTO 13019KT 10SM FEW050 30/21 A2996 RMK AO2 SLP148 T03000206 10317 20294 56010
KTPL 260051Z AUTO 14013KT 10SM CLR 29/20 A2996 RMK AO2 SLP147 T02890200
KTPL 260151Z AUTO 15014KT 10SM CLR 27/21 A2997 RMK AO2 SLP151 T02720211
KTPL 260251Z AUTO 15016G20KT 10SM CLR 27/21 A2998 RMK AO2 SLP155 T02670211 53007
KTPL 260351Z AUTO 15012KT 10SM CLR 26/21 A3001 RMK AO2 SLP164 T02560206
KTPL 260451Z AUTO 16012KT 10SM CLR 24/21 A3001 RMK AO2 SLP163 T02440206
KTPL 260551Z AUTO 16009KT 10SM CLR 24/21 A3003 RMK AO2 SLP171 T02390211 10300 20239 403170222 51015
KTPL 260651Z AUTO 16013KT 10SM CLR 23/22 A3002 RMK AO2 SLP166 T02280217
KTPL 260751Z AUTO 15013KT 10SM FEW013 SCT021 23/22 A3002 RMK AO2 SLP167 T02280222